sensor_id;sensor_type;location;lat;lon;timestamp;temperature;humidity
49901;DHT22;35789;48.414;12.768;2024-01-10T00:00:00;-4.8;95.4
49901;DHT22;35789;48.414;12.768;2024-01-10T00:05:00;-4.8;95.8
49901;DHT22;35789;48.414;12.768;2024-01-10T00:10:00;-4.8;95.5
49901;DHT22;35789;48.414;12.768;2024-01-10T00:15:00;-4.8;95.5
49901;DHT22;35789;48.414;12.768;2024-01-10T00:20:00;-4.8;95.0
49901;DHT22;35789;48.414;12.768;2024-01-10T00:25:00;-4.8;95.5
49901;DHT22;35789;48.414;12.768;2024-01-10T00:30:00;-4.9;95.6
49901;DHT22;35789;48.414;12.768;2024-01-10T00:35:00;-4.8;95.5
49901;DHT22;35789;48.414;12.768;2024-01-10T00:40:00;-4.9;95.2
49901;DHT22;35789;48.414;12.768;2024-01-10T00:45:00;-5.0;95.7
49901;DHT22;35789;48.414;12.768;2024-01-10T00:50:00;-5.0;95.3
49901;DHT22;35789;48.414;12.768;2024-01-10T00:55:00;-5.1;95.6
49901;DHT22;35789;48.414;12.768;2024-01-10T01:00:00;-5.0;95.8
49901;DHT22;35789;48.414;12.768;2024-01-10T01:05:00;-5.1;95.8
49901;DHT22;35789;48.414;12.768;2024-01-10T01:10:00;-5.1;95.7
49901;DHT22;35789;48.414;12.768;2024-01-10T01:15:00;-5.1;96.1
49901;DHT22;35789;48.414;12.768;2024-01-10T01:20:00;-5.1;95.8
49901;DHT22;35789;48.414;12.768;2024-01-10T01:25:00;-5.1;95.8
49901;DHT22;35789;48.414;12.768;2024-01-10T01:30:00;-5.1;95.8
49901;DHT22;35789;48.414;12.768;2024-01-10T01:35:00;-5.2;95.8
49901;DHT22;35789;48.414;12.768;2024-01-10T01:40:00;-5.1;95.8
49901;DHT22;35789;48.414;12.768;2024-01-10T01:45:00;-5.3;95.4
49901;DHT22;35789;48.414;12.768;2024-01-10T01:50:00;-5.3;95.4
49901;DHT22;35789;48.414;12.768;2024-01-10T01:55:00;-5.3;95.7
49901;DHT22;35789;48.414;12.768;2024-01-10T02:00:00;-5.4;95.7
49901;DHT22;35789;48.414;12.768;2024-01-10T02:05:00;-5.4;96.0
49901;DHT22;35789;48.414;12.768;2024-01-10T02:10:00;-5.3;96.0
49901;DHT22;35789;48.414;12.768;2024-01-10T02:15:00;-5.3;95.7
49901;DHT22;35789;48.414;12.768;2024-01-10T02:20:07;-5.4;95.5
49901;DHT22;35789;48.414;12.768;2024-01-10T02:25:00;-5.4;95.7
49901;DHT22;35789;48.414;12.768;2024-01-10T02:30:00;-5.4;95.8
49901;DHT22;35789;48.414;12.768;2024-01-10T02:35:00;-5.5;95.8
49901;DHT22;35789;48.414;12.768;2024-01-10T02:40:00;-5.5;95.7
49901;DHT22;35789;48.414;12.768;2024-01-10T02:45:00;-5.5;95.8
49901;DHT22;35789;48.414;12.768;2024-01-10T02:50:00;-5.5;95.7
49901;DHT22;35789;48.414;12.768;2024-01-10T02:55:00;-5.6;95.6
49901;DHT22;35789;48.414;12.768;2024-01-10T03:00:00;-5.6;95.5
49901;DHT22;35789;48.414;12.768;2024-01-10T03:05:00;-5.7;95.6
49901;DHT22;35789;48.414;12.768;2024-01-10T03:10:00;-5.7;96.1
49901;DHT22;35789;48.414;12.768;2024-01-10T03:15:00;-5.6;95.9
49901;DHT22;35789;48.414;12.768;2024-01-10T03:20:00;-5.7;95.5
49901;DHT22;35789;48.414;12.768;2024-01-10T03:25:00;-5.7;95.8
49901;DHT22;35789;48.414;12.768;2024-01-10T03:30:00;-5.7;96.0
49901;DHT22;35789;48.414;12.768;2024-01-10T03:35:00;-5.7;95.6
49901;DHT22;35789;48.414;12.768;2024-01-10T03:40:00;-5.8;95.7
49901;DHT22;35789;48.414;12.768;2024-01-10T03:45:00;-5.8;95.8
49901;DHT22;35789;48.414;12.768;2024-01-10T03:50:00;-5.9;95.7
49901;DHT22;35789;48.414;12.768;2024-01-10T03:55:00;-5.9;95.7
49901;DHT22;35789;48.414;12.768;2024-01-10T04:00:00;-6.0;95.7
49901;DHT22;35789;48.414;12.768;2024-01-10T04:05:00;-5.9;96.0
49901;DHT22;35789;48.414;12.768;2024-01-10T04:10:00;-5.9;96.1
49901;DHT22;35789;48.414;12.768;2024-01-10T04:15:00;-5.9;95.8
49901;DHT22;35789;48.414;12.768;2024-01-10T04:20:00;-6.0;95.7
49901;DHT22;35789;48.414;12.768;2024-01-10T04:25:00;-6.0;95.3
49901;DHT22;35789;48.414;12.768;2024-01-10T04:30:00;-6.1;95.5
49901;DHT22;35789;48.414;12.768;2024-01-10T04:35:00;-6.1;95.6
49901;DHT22;35789;48.414;12.768;2024-01-10T04:40:00;-6.1;95.7
49901;DHT22;35789;48.414;12.768;2024-01-10T04:45:00;-6.1;95.7
49901;DHT22;35789;48.414;12.768;2024-01-10T04:50:00;-6.1;95.8
49901;DHT22;35789;48.414;12.768;2024-01-10T04:55:00;-6.1;95.8
49901;DHT22;35789;48.414;12.768;2024-01-10T05:00:00;-6.1;95.7
49901;DHT22;35789;48.414;12.768;2024-01-10T05:05:00;-6.2;95.6
49901;DHT22;35789;48.414;12.768;2024-01-10T05:10:00;-6.2;95.7
49901;DHT22;35789;48.414;12.768;2024-01-10T05:15:00;-6.2;95.6
49901;DHT22;35789;48.414;12.768;2024-01-10T05:20:00;-6.2;95.8
49901;DHT22;35789;48.414;12.768;2024-01-10T05:25:00;-6.2;95.5
49901;DHT22;35789;48.414;12.768;2024-01-10T05:30:00;-6.3;95.6
49901;DHT22;35789;48.414;12.768;2024-01-10T05:35:00;-6.3;95.9
49901;DHT22;35789;48.414;12.768;2024-01-10T05:40:00;-6.3;95.5
49901;DHT22;35789;48.414;12.768;2024-01-10T05:45:00;-6.3;96.1
49901;DHT22;35789;48.414;12.768;2024-01-10T05:50:00;-6.2;96.6
49901;DHT22;35789;48.414;12.768;2024-01-10T05:55:00;-6.2;96.2
49901;DHT22;35789;48.414;12.768;2024-01-10T06:00:00;-6.2;95.6
49901;DHT22;35789;48.414;12.768;2024-01-10T06:05:00;-6.3;95.4
49901;DHT22;35789;48.414;12.768;2024-01-10T06:10:00;-6.3;95.6
49901;DHT22;35789;48.414;12.768;2024-01-10T06:15:00;-6.4;95.6
49901;DHT22;35789;48.414;12.768;2024-01-10T06:20:00;-6.4;95.7
49901;DHT22;35789;48.414;12.768;2024-01-10T06:25:02;-6.4;95.8
49901;DHT22;35789;48.414;12.768;2024-01-10T06:30:00;-6.5;95.5
49901;DHT22;35789;48.414;12.768;2024-01-10T06:35:00;-6.5;95.8
49901;DHT22;35789;48.414;12.768;2024-01-10T06:40:00;-6.5;95.5
49901;DHT22;35789;48.414;12.768;2024-01-10T06:45:00;-6.5;95.6
49901;DHT22;35789;48.414;12.768;2024-01-10T06:50:00;-6.5;95.4
49901;DHT22;35789;48.414;12.768;2024-01-10T06:55:00;-6.5;95.4
49901;DHT22;35789;48.414;12.768;2024-01-10T07:00:00;-6.5;95.7
49901;DHT22;35789;48.414;12.768;2024-01-10T07:05:00;-6.5;96.1
49901;DHT22;35789;48.414;12.768;2024-01-10T07:10:00;-6.5;95.6
49901;DHT22;35789;48.414;12.768;2024-01-10T07:15:00;-6.5;95.8
49901;DHT22;35789;48.414;12.768;2024-01-10T07:20:00;-6.5;95.9
49901;DHT22;35789;48.414;12.768;2024-01-10T07:25:00;-6.5;95.6
49901;DHT22;35789;48.414;12.768;2024-01-10T07:30:00;-6.4;95.8
49901;DHT22;35789;48.414;12.768;2024-01-10T07:35:00;-6.4;95.7
49901;DHT22;35789;48.414;12.768;2024-01-10T07:40:00;-6.4;96.0
49901;DHT22;35789;48.414;12.768;2024-01-10T07:45:00;-6.2;97.7
49901;DHT22;35789;48.414;12.768;2024-01-10T07:50:00;-6.1;97.3
49901;DHT22;35789;48.414;12.768;2024-01-10T07:55:00;-6.0;97.0
49901;DHT22;35789;48.414;12.768;2024-01-10T08:00:00;-5.9;97.1
49901;DHT22;35789;48.414;12.768;2024-01-10T08:05:00;-5.8;97.6
49901;DHT22;35789;48.414;12.768;2024-01-10T08:10:00;-5.7;97.7
49901;DHT22;35789;48.414;12.768;2024-01-10T08:15:00;-5.6;97.6
49901;DHT22;35789;48.414;12.768;2024-01-10T08:20:00;-5.6;97.5
49901;DHT22;35789;48.414;12.768;2024-01-10T08:25:00;-5.5;97.4
49901;DHT22;35789;48.414;12.768;2024-01-10T08:30:00;-5.4;97.7
49901;DHT22;35789;48.414;12.768;2024-01-10T08:35:00;-5.3;97.3
49901;DHT22;35789;48.414;12.768;2024-01-10T08:40:01;-5.2;97.6
49901;DHT22;35789;48.414;12.768;2024-01-10T08:45:00;-5.2;97.5
49901;DHT22;35789;48.414;12.768;2024-01-10T08:50:00;-5.2;97.6
49901;DHT22;35789;48.414;12.768;2024-01-10T08:55:00;-5.2;97.9
49901;DHT22;35789;48.414;12.768;2024-01-10T09:00:00;-5.1;97.6
49901;DHT22;35789;48.414;12.768;2024-01-10T09:05:00;-5.2;97.2
49901;DHT22;35789;48.414;12.768;2024-01-10T09:10:00;-5.1;97.8
49901;DHT22;35789;48.414;12.768;2024-01-10T09:15:00;-5.2;97.4
49901;DHT22;35789;48.414;12.768;2024-01-10T09:20:00;-5.0;98.1
49901;DHT22;35789;48.414;12.768;2024-01-10T09:25:00;-5.1;97.3
49901;DHT22;35789;48.414;12.768;2024-01-10T09:30:00;-5.0;97.9
49901;DHT22;35789;48.414;12.768;2024-01-10T09:35:00;-4.9;97.7
49901;DHT22;35789;48.414;12.768;2024-01-10T09:40:00;-4.9;97.7
49901;DHT22;35789;48.414;12.768;2024-01-10T09:45:00;-4.9;97.9
49901;DHT22;35789;48.414;12.768;2024-01-10T09:50:00;-4.8;98.0
49901;DHT22;35789;48.414;12.768;2024-01-10T09:55:00;-4.8;98.5
49901;DHT22;35789;48.414;12.768;2024-01-10T10:00:00;-4.7;98.1
49901;DHT22;35789;48.414;12.768;2024-01-10T10:05:02;-4.5;98.2
49901;DHT22;35789;48.414;12.768;2024-01-10T10:10:00;-4.5;97.7
49901;DHT22;35789;48.414;12.768;2024-01-10T10:15:01;-4.4;97.9
49901;DHT22;35789;48.414;12.768;2024-01-10T10:20:02;-4.3;97.9
49901;DHT22;35789;48.414;12.768;2024-01-10T10:25:00;-4.3;98.1
49901;DHT22;35789;48.414;12.768;2024-01-10T10:30:00;-4.1;98.2
49901;DHT22;35789;48.414;12.768;2024-01-10T10:35:00;-4.0;97.6
49901;DHT22;35789;48.414;12.768;2024-01-10T10:40:00;-4.0;97.3
49901;DHT22;35789;48.414;12.768;2024-01-10T10:45:02;-3.9;97.9
49901;DHT22;35789;48.414;12.768;2024-01-10T10:50:00;-3.8;97.9
49901;DHT22;35789;48.414;12.768;2024-01-10T10:55:02;-3.7;98.1
49901;DHT22;35789;48.414;12.768;2024-01-10T11:00:00;-3.6;98.0
49901;DHT22;35789;48.414;12.768;2024-01-10T11:05:00;-3.5;97.9
49901;DHT22;35789;48.414;12.768;2024-01-10T11:10:00;-3.5;97.9
49901;DHT22;35789;48.414;12.768;2024-01-10T11:15:06;-3.4;97.5
49901;DHT22;35789;48.414;12.768;2024-01-10T11:25:00;-3.2;97.0
49901;DHT22;35789;48.414;12.768;2024-01-10T11:30:00;-3.2;97.4
49901;DHT22;35789;48.414;12.768;2024-01-10T11:35:00;-3.1;97.4
49901;DHT22;35789;48.414;12.768;2024-01-10T11:40:00;-3.0;97.4
49901;DHT22;35789;48.414;12.768;2024-01-10T11:45:00;-2.9;96.7
49901;DHT22;35789;48.414;12.768;2024-01-10T11:50:01;-2.8;96.7
49901;DHT22;35789;48.414;12.768;2024-01-10T11:55:00;-2.8;96.3
49901;DHT22;35789;48.414;12.768;2024-01-10T12:00:00;-2.7;96.4
49901;DHT22;35789;48.414;12.768;2024-01-10T12:05:00;-2.7;96.7
49901;DHT22;35789;48.414;12.768;2024-01-10T12:10:00;-2.6;96.0
49901;DHT22;35789;48.414;12.768;2024-01-10T12:15:00;-2.5;95.8
49901;DHT22;35789;48.414;12.768;2024-01-10T12:20:01;-2.5;96.4
49901;DHT22;35789;48.414;12.768;2024-01-10T12:25:04;-2.4;96.4
49901;DHT22;35789;48.414;12.768;2024-01-10T12:30:00;-2.4;95.7
49901;DHT22;35789;48.414;12.768;2024-01-10T12:35:01;-2.3;95.6
49901;DHT22;35789;48.414;12.768;2024-01-10T12:40:00;-2.3;96.2
49901;DHT22;35789;48.414;12.768;2024-01-10T12:45:00;-2.2;96.7
49901;DHT22;35789;48.414;12.768;2024-01-10T12:50:00;-2.2;95.9
49901;DHT22;35789;48.414;12.768;2024-01-10T12:55:00;-2.2;95.7
49901;DHT22;35789;48.414;12.768;2024-01-10T13:00:00;-2.2;96.4
49901;DHT22;35789;48.414;12.768;2024-01-10T13:05:00;-2.1;96.0
49901;DHT22;35789;48.414;12.768;2024-01-10T13:10:00;-2.1;95.8
49901;DHT22;35789;48.414;12.768;2024-01-10T13:15:00;-2.0;95.7
49901;DHT22;35789;48.414;12.768;2024-01-10T13:20:00;-2.0;95.6
49901;DHT22;35789;48.414;12.768;2024-01-10T13:25:00;-1.9;95.4
49901;DHT22;35789;48.414;12.768;2024-01-10T13:30:00;-1.9;96.4
49901;DHT22;35789;48.414;12.768;2024-01-10T13:35:00;-1.9;96.3
49901;DHT22;35789;48.414;12.768;2024-01-10T13:40:00;-1.9;96.2
49901;DHT22;35789;48.414;12.768;2024-01-10T13:45:00;-1.9;96.1
49901;DHT22;35789;48.414;12.768;2024-01-10T13:50:00;-1.9;96.2
49901;DHT22;35789;48.414;12.768;2024-01-10T13:55:00;-1.9;95.9
49901;DHT22;35789;48.414;12.768;2024-01-10T14:00:00;-1.8;95.4
49901;DHT22;35789;48.414;12.768;2024-01-10T14:05:03;-1.9;95.1
49901;DHT22;35789;48.414;12.768;2024-01-10T14:10:00;-1.9;95.5
49901;DHT22;35789;48.414;12.768;2024-01-10T14:15:00;-1.9;95.3
49901;DHT22;35789;48.414;12.768;2024-01-10T14:20:00;-2.0;95.7
49901;DHT22;35789;48.414;12.768;2024-01-10T14:25:00;-2.0;95.7
49901;DHT22;35789;48.414;12.768;2024-01-10T14:30:00;-2.1;96.2
49901;DHT22;35789;48.414;12.768;2024-01-10T14:35:00;-2.2;96.3
49901;DHT22;35789;48.414;12.768;2024-01-10T14:40:00;-2.2;97.1
49901;DHT22;35789;48.414;12.768;2024-01-10T14:45:00;-2.3;96.8
49901;DHT22;35789;48.414;12.768;2024-01-10T14:50:00;-2.4;96.9
49901;DHT22;35789;48.414;12.768;2024-01-10T14:55:00;-2.4;97.0
49901;DHT22;35789;48.414;12.768;2024-01-10T15:00:01;-2.4;97.2
49901;DHT22;35789;48.414;12.768;2024-01-10T15:05:00;-2.4;97.5
49901;DHT22;35789;48.414;12.768;2024-01-10T15:10:00;-2.5;97.7
49901;DHT22;35789;48.414;12.768;2024-01-10T15:15:00;-2.5;97.8
49901;DHT22;35789;48.414;12.768;2024-01-10T15:20:00;-2.6;98.0
49901;DHT22;35789;48.414;12.768;2024-01-10T15:25:00;-2.6;97.9
49901;DHT22;35789;48.414;12.768;2024-01-10T15:30:00;-2.6;98.2
49901;DHT22;35789;48.414;12.768;2024-01-10T15:35:00;-2.7;98.1
49901;DHT22;35789;48.414;12.768;2024-01-10T15:40:00;-2.7;98.1
49901;DHT22;35789;48.414;12.768;2024-01-10T15:45:00;-2.7;98.0
49901;DHT22;35789;48.414;12.768;2024-01-10T15:50:00;-2.8;98.0
49901;DHT22;35789;48.414;12.768;2024-01-10T15:55:00;-2.8;97.9
49901;DHT22;35789;48.414;12.768;2024-01-10T16:00:00;-2.8;97.9
49901;DHT22;35789;48.414;12.768;2024-01-10T16:05:00;-2.9;97.7
49901;DHT22;35789;48.414;12.768;2024-01-10T16:10:00;-2.9;97.7
49901;DHT22;35789;48.414;12.768;2024-01-10T16:15:00;-2.9;97.7
49901;DHT22;35789;48.414;12.768;2024-01-10T16:20:00;-2.9;97.7
49901;DHT22;35789;48.414;12.768;2024-01-10T16:25:00;-3.0;97.6
49901;DHT22;35789;48.414;12.768;2024-01-10T16:30:00;-3.0;98.0
49901;DHT22;35789;48.414;12.768;2024-01-10T16:35:00;-3.0;98.0
49901;DHT22;35789;48.414;12.768;2024-01-10T16:40:00;-3.1;98.0
49901;DHT22;35789;48.414;12.768;2024-01-10T16:45:00;-3.1;98.0
49901;DHT22;35789;48.414;12.768;2024-01-10T16:50:00;-3.1;97.8
49901;DHT22;35789;48.414;12.768;2024-01-10T16:55:00;-3.2;98.0
49901;DHT22;35789;48.414;12.768;2024-01-10T17:00:00;-3.2;98.0
49901;DHT22;35789;48.414;12.768;2024-01-10T17:05:00;-3.2;98.0
49901;DHT22;35789;48.414;12.768;2024-01-10T17:10:00;-3.3;97.9
49901;DHT22;35789;48.414;12.768;2024-01-10T17:15:00;-3.3;97.7
49901;DHT22;35789;48.414;12.768;2024-01-10T17:20:00;-3.3;97.7
49901;DHT22;35789;48.414;12.768;2024-01-10T17:25:00;-3.4;97.7
49901;DHT22;35789;48.414;12.768;2024-01-10T17:30:00;-3.4;97.5
49901;DHT22;35789;48.414;12.768;2024-01-10T17:35:00;-3.5;97.6
49901;DHT22;35789;48.414;12.768;2024-01-10T17:40:00;-3.5;97.8
49901;DHT22;35789;48.414;12.768;2024-01-10T17:45:00;-3.5;97.8
49901;DHT22;35789;48.414;12.768;2024-01-10T17:50:00;-3.5;98.0
49901;DHT22;35789;48.414;12.768;2024-01-10T17:55:00;-3.6;97.9
49901;DHT22;35789;48.414;12.768;2024-01-10T18:00:00;-3.6;97.9
49901;DHT22;35789;48.414;12.768;2024-01-10T18:05:00;-3.7;97.9
49901;DHT22;35789;48.414;12.768;2024-01-10T18:10:00;-3.7;97.9
49901;DHT22;35789;48.414;12.768;2024-01-10T18:15:00;-3.8;97.6
49901;DHT22;35789;48.414;12.768;2024-01-10T18:20:01;-3.8;97.5
49901;DHT22;35789;48.414;12.768;2024-01-10T18:25:00;-3.8;97.5
49901;DHT22;35789;48.414;12.768;2024-01-10T18:30:00;-3.9;97.7
49901;DHT22;35789;48.414;12.768;2024-01-10T18:35:00;-3.9;97.6
49901;DHT22;35789;48.414;12.768;2024-01-10T18:40:00;-3.9;97.9
49901;DHT22;35789;48.414;12.768;2024-01-10T18:45:00;-3.9;97.9
49901;DHT22;35789;48.414;12.768;2024-01-10T18:50:00;-4.0;97.7
49901;DHT22;35789;48.414;12.768;2024-01-10T18:55:00;-4.0;97.7
49901;DHT22;35789;48.414;12.768;2024-01-10T19:00:00;-4.1;97.5
49901;DHT22;35789;48.414;12.768;2024-01-10T19:05:00;-4.1;97.9
49901;DHT22;35789;48.414;12.768;2024-01-10T19:10:00;-4.1;97.6
49901;DHT22;35789;48.414;12.768;2024-01-10T19:15:00;-4.1;97.8
49901;DHT22;35789;48.414;12.768;2024-01-10T19:20:00;-4.2;97.5
49901;DHT22;35789;48.414;12.768;2024-01-10T19:25:00;-4.2;97.8
49901;DHT22;35789;48.414;12.768;2024-01-10T19:30:00;-4.3;97.5
49901;DHT22;35789;48.414;12.768;2024-01-10T19:35:00;-4.3;97.9
49901;DHT22;35789;48.414;12.768;2024-01-10T19:40:00;-4.3;97.7
49901;DHT22;35789;48.414;12.768;2024-01-10T19:45:00;-4.3;97.4
49901;DHT22;35789;48.414;12.768;2024-01-10T19:50:00;-4.4;97.5
49901;DHT22;35789;48.414;12.768;2024-01-10T19:55:00;-4.4;97.7
49901;DHT22;35789;48.414;12.768;2024-01-10T20:00:00;-4.4;97.8
49901;DHT22;35789;48.414;12.768;2024-01-10T20:05:00;-4.4;97.6
49901;DHT22;35789;48.414;12.768;2024-01-10T20:10:00;-4.4;97.6
49901;DHT22;35789;48.414;12.768;2024-01-10T20:15:00;-4.4;97.5
49901;DHT22;35789;48.414;12.768;2024-01-10T20:20:00;-4.4;97.4
49901;DHT22;35789;48.414;12.768;2024-01-10T20:25:00;-4.5;97.5
49901;DHT22;35789;48.414;12.768;2024-01-10T20:30:00;-4.5;97.1
49901;DHT22;35789;48.414;12.768;2024-01-10T20:35:00;-4.6;97.1
49901;DHT22;35789;48.414;12.768;2024-01-10T20:40:00;-4.7;97.2
49901;DHT22;35789;48.414;12.768;2024-01-10T20:45:00;-4.8;97.2
49901;DHT22;35789;48.414;12.768;2024-01-10T20:50:00;-4.8;97.3
49901;DHT22;35789;48.414;12.768;2024-01-10T20:55:00;-4.8;97.1
49901;DHT22;35789;48.414;12.768;2024-01-10T21:00:00;-4.8;96.9
49901;DHT22;35789;48.414;12.768;2024-01-10T21:05:00;-4.9;96.8
49901;DHT22;35789;48.414;12.768;2024-01-10T21:10:00;-4.9;97.0
49901;DHT22;35789;48.414;12.768;2024-01-10T21:15:00;-4.9;97.0
49901;DHT22;35789;48.414;12.768;2024-01-10T21:20:00;-4.9;97.0
49901;DHT22;35789;48.414;12.768;2024-01-10T21:25:00;-4.9;97.3
49901;DHT22;35789;48.414;12.768;2024-01-10T21:30:00;-4.9;97.3
49901;DHT22;35789;48.414;12.768;2024-01-10T21:35:00;-4.9;97.3
49901;DHT22;35789;48.414;12.768;2024-01-10T21:40:00;-5.0;96.8
49901;DHT22;35789;48.414;12.768;2024-01-10T21:45:00;-5.0;97.4
49901;DHT22;35789;48.414;12.768;2024-01-10T21:50:00;-5.0;97.2
49901;DHT22;35789;48.414;12.768;2024-01-10T21:55:00;-5.1;97.0
49901;DHT22;35789;48.414;12.768;2024-01-10T22:00:00;-5.1;97.0
49901;DHT22;35789;48.414;12.768;2024-01-10T22:05:03;-5.0;97.4
49901;DHT22;35789;48.414;12.768;2024-01-10T22:10:00;-5.1;97.1
49901;DHT22;35789;48.414;12.768;2024-01-10T22:15:00;-5.1;96.7
49901;DHT22;35789;48.414;12.768;2024-01-10T22:20:00;-5.2;96.7
49901;DHT22;35789;48.414;12.768;2024-01-10T22:25:00;-5.2;96.8
49901;DHT22;35789;48.414;12.768;2024-01-10T22:30:00;-5.2;96.8
49901;DHT22;35789;48.414;12.768;2024-01-10T22:35:00;-5.2;97.1
49901;DHT22;35789;48.414;12.768;2024-01-10T22:40:00;-5.2;97.1
49901;DHT22;35789;48.414;12.768;2024-01-10T22:45:00;-5.2;97.3
49901;DHT22;35789;48.414;12.768;2024-01-10T22:50:00;-5.2;97.1
49901;DHT22;35789;48.414;12.768;2024-01-10T22:55:00;-5.2;96.9
49901;DHT22;35789;48.414;12.768;2024-01-10T23:00:00;-5.3;96.6
49901;DHT22;35789;48.414;12.768;2024-01-10T23:05:00;-5.3;96.5
49901;DHT22;35789;48.414;12.768;2024-01-10T23:10:00;-5.3;96.8
49901;DHT22;35789;48.414;12.768;2024-01-10T23:15:00;-5.3;96.9
49901;DHT22;35789;48.414;12.768;2024-01-10T23:20:00;-5.4;96.8
49901;DHT22;35789;48.414;12.768;2024-01-10T23:25:00;-5.4;96.2
49901;DHT22;35789;48.414;12.768;2024-01-10T23:30:00;-5.3;97.1
49901;DHT22;35789;48.414;12.768;2024-01-10T23:35:00;-5.4;96.5
49901;DHT22;35789;48.414;12.768;2024-01-10T23:40:00;-5.5;96.3
49901;DHT22;35789;48.414;12.768;2024-01-10T23:45:00;-5.5;96.0
49901;DHT22;35789;48.414;12.768;2024-01-10T23:50:00;-5.5;96.4
49901;DHT22;35789;48.414;12.768;2024-01-10T23:55:00;-5.5;96.5
